sensor_id;sensor_type;location;lat;lon;timestamp;P1;P2;P0
84428;PMS7003;74637;52.170;21.034;2024-01-30T00:01:53;36.50;27.50;14.00
84428;PMS7003;74637;52.170;21.034;2024-01-30T00:04:20;19.50;10.50;2.00
84428;PMS7003;74637;52.170;21.034;2024-01-30T00:06:46;37.50;25.00;14.00
84428;PMS7003;74637;52.170;21.034;2024-01-30T00:09:13;34.50;29.50;18.00
84428;PMS7003;74637;52.170;21.034;2024-01-30T00:11:40;32.00;28.00;17.00
84428;PMS7003;74637;52.170;21.034;2024-01-30T00:14:06;31.00;29.00;17.00
84428;PMS7003;74637;52.170;21.034;2024-01-30T00:16:33;34.50;27.25;14.50
84428;PMS7003;74637;52.170;21.034;2024-01-30T00:19:00;38.00;30.00;15.00
84428;PMS7003;74637;52.170;21.034;2024-01-30T00:21:28;45.50;26.00;14.50
84428;PMS7003;74637;52.170;21.034;2024-01-30T00:23:55;28.50;23.50;14.50
84428;PMS7003;74637;52.170;21.034;2024-01-30T00:26:21;34.50;27.50;16.00
84428;PMS7003;74637;52.170;21.034;2024-01-30T00:28:48;35.33;29.33;18.33
84428;PMS7003;74637;52.170;21.034;2024-01-30T00:31:15;42.50;31.00;16.00
84428;PMS7003;74637;52.170;21.034;2024-01-30T00:33:42;29.67;25.67;14.33
84428;PMS7003;74637;52.170;21.034;2024-01-30T00:36:09;32.00;27.50;16.00
84428;PMS7003;74637;52.170;21.034;2024-01-30T00:38:36;24.00;17.00;10.50
84428;PMS7003;74637;52.170;21.034;2024-01-30T00:41:03;23.75;20.00;10.50
84428;PMS7003;74637;52.170;21.034;2024-01-30T00:43:30;27.00;23.00;13.00
84428;PMS7003;74637;52.170;21.034;2024-01-30T00:46:00;27.67;19.00;11.00
84428;PMS7003;74637;52.170;21.034;2024-01-30T00:48:27;32.00;22.00;11.00
84428;PMS7003;74637;52.170;21.034;2024-01-30T00:50:53;26.00;22.00;12.00
84428;PMS7003;74637;52.170;21.034;2024-01-30T00:53:20;23.50;21.00;12.50
84428;PMS7003;74637;52.170;21.034;2024-01-30T00:55:46;26.00;20.00;13.00
84428;PMS7003;74637;52.170;21.034;2024-01-30T00:58:13;20.00;14.00;10.00
84428;PMS7003;74637;52.170;21.034;2024-01-30T01:00:40;30.50;16.00;11.00
84428;PMS7003;74637;52.170;21.034;2024-01-30T01:03:10;23.00;17.50;11.00
84428;PMS7003;74637;52.170;21.034;2024-01-30T01:05:37;24.00;16.67;11.00
84428;PMS7003;74637;52.170;21.034;2024-01-30T01:08:03;26.00;21.33;13.00
84428;PMS7003;74637;52.170;21.034;2024-01-30T01:10:30;30.00;22.00;15.00
84428;PMS7003;74637;52.170;21.034;2024-01-30T01:12:57;46.50;33.25;17.75
84428;PMS7003;74637;52.170;21.034;2024-01-30T01:15:24;38.00;27.00;15.00
84428;PMS7003;74637;52.170;21.034;2024-01-30T01:17:50;24.33;20.33;11.67
84428;PMS7003;74637;52.170;21.034;2024-01-30T01:20:17;17.50;15.50;8.00
84428;PMS7003;74637;52.170;21.034;2024-01-30T01:22:44;20.00;14.00;8.00
84428;PMS7003;74637;52.170;21.034;2024-01-30T01:25:10;15.00;9.00;7.00
84428;PMS7003;74637;52.170;21.034;2024-01-30T01:27:37;14.00;11.00;7.00
84428;PMS7003;74637;52.170;21.034;2024-01-30T01:30:10;21.50;10.50;6.75
84428;PMS7003;74637;52.170;21.034;2024-01-30T01:32:38;20.50;12.50;9.00
84428;PMS7003;74637;52.170;21.034;2024-01-30T01:35:04;11.00;10.00;5.00
84428;PMS7003;74637;52.170;21.034;2024-01-30T01:37:34;19.00;9.00;6.00
84428;PMS7003;74637;52.170;21.034;2024-01-30T01:40:00;14.00;11.00;5.00
84428;PMS7003;74637;52.170;21.034;2024-01-30T01:44:54;15.00;10.50;7.00
84428;PMS7003;74637;52.170;21.034;2024-01-30T01:47:20;13.00;8.00;5.00
84428;PMS7003;74637;52.170;21.034;2024-01-30T01:49:47;13.75;10.75;5.50
84428;PMS7003;74637;52.170;21.034;2024-01-30T01:52:14;11.33;9.67;4.67
84428;PMS7003;74637;52.170;21.034;2024-01-30T01:54:40;15.00;7.00;4.50
84428;PMS7003;74637;52.170;21.034;2024-01-30T01:57:08;12.33;7.33;5.00
84428;PMS7003;74637;52.170;21.034;2024-01-30T01:59:34;13.67;8.00;3.33
84428;PMS7003;74637;52.170;21.034;2024-01-30T02:02:02;18.00;10.00;7.00
84428;PMS7003;74637;52.170;21.034;2024-01-30T02:04:29;14.50;9.00;5.00
84428;PMS7003;74637;52.170;21.034;2024-01-30T02:06:56;11.33;8.00;6.33
84428;PMS7003;74637;52.170;21.034;2024-01-30T02:09:23;15.00;8.00;7.00
84428;PMS7003;74637;52.170;21.034;2024-01-30T02:11:52;37.75;27.50;14.75
84428;PMS7003;74637;52.170;21.034;2024-01-30T02:14:18;25.00;21.50;13.50
84428;PMS7003;74637;52.170;21.034;2024-01-30T02:16:45;24.50;19.50;11.00
84428;PMS7003;74637;52.170;21.034;2024-01-30T02:19:12;22.33;13.33;8.67
84428;PMS7003;74637;52.170;21.034;2024-01-30T02:21:38;35.50;25.00;14.50
84428;PMS7003;74637;52.170;21.034;2024-01-30T02:24:06;32.67;27.67;15.33
84428;PMS7003;74637;52.170;21.034;2024-01-30T02:26:33;43.00;32.00;17.00
84428;PMS7003;74637;52.170;21.034;2024-01-30T02:29:00;34.33;28.67;14.33
84428;PMS7003;74637;52.170;21.034;2024-01-30T02:31:26;39.00;23.00;13.00
84428;PMS7003;74637;52.170;21.034;2024-01-30T02:33:53;27.00;18.67;10.00
84428;PMS7003;74637;52.170;21.034;2024-01-30T02:36:20;29.00;20.00;13.00
84428;PMS7003;74637;52.170;21.034;2024-01-30T02:38:47;37.67;27.67;19.00
84428;PMS7003;74637;52.170;21.034;2024-01-30T02:41:13;45.00;27.00;16.00
84428;PMS7003;74637;52.170;21.034;2024-01-30T02:43:40;34.50;25.25;12.75
84428;PMS7003;74637;52.170;21.034;2024-01-30T02:46:07;34.50;25.50;16.50
84428;PMS7003;74637;52.170;21.034;2024-01-30T02:51:22;22.00;22.00;13.00
84428;PMS7003;74637;52.170;21.034;2024-01-30T02:53:48;25.00;18.00;11.00
84428;PMS7003;74637;52.170;21.034;2024-01-30T02:56:15;29.67;23.00;13.00
84428;PMS7003;74637;52.170;21.034;2024-01-30T02:58:42;38.00;32.00;17.00
84428;PMS7003;74637;52.170;21.034;2024-01-30T03:01:09;31.50;22.50;14.00
84428;PMS7003;74637;52.170;21.034;2024-01-30T03:03:35;46.00;38.33;19.00
84428;PMS7003;74637;52.170;21.034;2024-01-30T03:06:03;33.00;26.00;17.00
84428;PMS7003;74637;52.170;21.034;2024-01-30T03:08:33;51.00;29.00;15.00
84428;PMS7003;74637;52.170;21.034;2024-01-30T03:11:01;30.25;25.00;12.50
84428;PMS7003;74637;52.170;21.034;2024-01-30T03:13:28;49.50;30.00;20.00
84428;PMS7003;74637;52.170;21.034;2024-01-30T03:15:54;36.50;28.50;13.00
84428;PMS7003;74637;52.170;21.034;2024-01-30T03:18:24;27.00;24.00;14.00
84428;PMS7003;74637;52.170;21.034;2024-01-30T03:20:50;39.67;27.67;15.67
84428;PMS7003;74637;52.170;21.034;2024-01-30T03:23:17;39.00;25.00;13.50
84428;PMS7003;74637;52.170;21.034;2024-01-30T03:25:43;31.00;22.00;14.00
84428;PMS7003;74637;52.170;21.034;2024-01-30T03:28:10;34.00;22.00;14.00
84428;PMS7003;74637;52.170;21.034;2024-01-30T03:30:37;34.00;23.50;15.00
84428;PMS7003;74637;52.170;21.034;2024-01-30T03:33:07;28.25;19.00;11.00
84428;PMS7003;74637;52.170;21.034;2024-01-30T03:35:34;31.00;24.00;17.00
84428;PMS7003;74637;52.170;21.034;2024-01-30T03:38:00;35.50;29.50;18.00
84428;PMS7003;74637;52.170;21.034;2024-01-30T03:40:27;40.00;33.00;20.00
84428;PMS7003;74637;52.170;21.034;2024-01-30T03:42:53;29.00;23.00;14.00
84428;PMS7003;74637;52.170;21.034;2024-01-30T03:45:20;19.33;13.00;7.33
84428;PMS7003;74637;52.170;21.034;2024-01-30T03:47:47;32.50;21.00;11.00
84428;PMS7003;74637;52.170;21.034;2024-01-30T03:50:14;29.00;15.00;9.50
84428;PMS7003;74637;52.170;21.034;2024-01-30T03:52:40;31.50;25.50;15.00
84428;PMS7003;74637;52.170;21.034;2024-01-30T03:55:07;24.00;18.33;9.33
84428;PMS7003;74637;52.170;21.034;2024-01-30T03:57:34;22.50;19.50;12.50
84428;PMS7003;74637;52.170;21.034;2024-01-30T04:00:01;23.00;19.00;10.00
84428;PMS7003;74637;52.170;21.034;2024-01-30T04:02:28;31.00;22.00;13.00
84428;PMS7003;74637;52.170;21.034;2024-01-30T04:04:54;22.00;17.33;10.00
84428;PMS7003;74637;52.170;21.034;2024-01-30T04:07:21;28.67;18.67;11.33
84428;PMS7003;74637;52.170;21.034;2024-01-30T04:09:47;35.00;26.00;14.50
84428;PMS7003;74637;52.170;21.034;2024-01-30T04:12:14;27.67;21.00;12.33
84428;PMS7003;74637;52.170;21.034;2024-01-30T04:14:41;37.00;24.50;15.50
84428;PMS7003;74637;52.170;21.034;2024-01-30T04:17:07;34.00;26.00;17.00
84428;PMS7003;74637;52.170;21.034;2024-01-30T04:19:36;34.25;25.00;15.00
84428;PMS7003;74637;52.170;21.034;2024-01-30T04:22:04;29.00;21.00;15.00
84428;PMS7003;74637;52.170;21.034;2024-01-30T04:24:31;34.00;26.00;14.00
84428;PMS7003;74637;52.170;21.034;2024-01-30T04:26:58;18.67;16.00;10.67
84428;PMS7003;74637;52.170;21.034;2024-01-30T04:29:24;22.00;17.00;11.00
84428;PMS7003;74637;52.170;21.034;2024-01-30T04:31:51;27.00;24.00;14.50
84428;PMS7003;74637;52.170;21.034;2024-01-30T04:34:18;35.50;23.00;16.25
84428;PMS7003;74637;52.170;21.034;2024-01-30T04:36:45;25.00;16.50;12.00
84428;PMS7003;74637;52.170;21.034;2024-01-30T04:39:12;34.50;24.00;15.00
84428;PMS7003;74637;52.170;21.034;2024-01-30T04:41:39;27.50;19.00;11.00
84428;PMS7003;74637;52.170;21.034;2024-01-30T04:44:06;28.50;20.50;13.00
84428;PMS7003;74637;52.170;21.034;2024-01-30T04:46:33;23.00;13.00;10.00
84428;PMS7003;74637;52.170;21.034;2024-01-30T04:49:00;20.00;19.00;10.00
84428;PMS7003;74637;52.170;21.034;2024-01-30T04:51:27;27.50;19.00;10.50
84428;PMS7003;74637;52.170;21.034;2024-01-30T04:53:57;35.50;23.00;13.50
84428;PMS7003;74637;52.170;21.034;2024-01-30T04:56:23;34.00;24.00;13.00
84428;PMS7003;74637;52.170;21.034;2024-01-30T04:58:50;26.50;18.00;12.00
84428;PMS7003;74637;52.170;21.034;2024-01-30T05:01:17;38.00;24.33;16.67
84428;PMS7003;74637;52.170;21.034;2024-01-30T05:03:43;30.50;22.00;13.00
84428;PMS7003;74637;52.170;21.034;2024-01-30T05:06:10;32.00;17.50;10.50
84428;PMS7003;74637;52.170;21.034;2024-01-30T05:08:37;29.50;20.00;11.00
84428;PMS7003;74637;52.170;21.034;2024-01-30T05:11:04;33.00;26.00;16.00
84428;PMS7003;74637;52.170;21.034;2024-01-30T05:13:31;25.00;21.00;12.50
84428;PMS7003;74637;52.170;21.034;2024-01-30T05:15:58;29.50;22.50;13.50
84428;PMS7003;74637;52.170;21.034;2024-01-30T05:18:25;40.00;30.00;18.00
84428;PMS7003;74637;52.170;21.034;2024-01-30T05:20:52;34.67;26.00;17.00
84428;PMS7003;74637;52.170;21.034;2024-01-30T05:23:18;46.50;33.50;17.50
84428;PMS7003;74637;52.170;21.034;2024-01-30T05:25:45;36.00;20.50;13.50
84428;PMS7003;74637;52.170;21.034;2024-01-30T05:28:11;26.00;16.00;11.00
84428;PMS7003;74637;52.170;21.034;2024-01-30T05:30:38;27.00;21.50;10.50
84428;PMS7003;74637;52.170;21.034;2024-01-30T05:33:04;37.00;24.00;13.00
84428;PMS7003;74637;52.170;21.034;2024-01-30T05:35:31;36.50;23.50;16.00
84428;PMS7003;74637;52.170;21.034;2024-01-30T05:37:58;34.00;22.33;13.00
84428;PMS7003;74637;52.170;21.034;2024-01-30T05:40:24;31.50;23.00;15.00
84428;PMS7003;74637;52.170;21.034;2024-01-30T05:42:51;21.00;19.00;11.00
84428;PMS7003;74637;52.170;21.034;2024-01-30T05:45:17;31.00;18.00;11.00
84428;PMS7003;74637;52.170;21.034;2024-01-30T05:47:44;31.00;21.00;12.00
84428;PMS7003;74637;52.170;21.034;2024-01-30T05:50:11;25.00;20.00;13.00
84428;PMS7003;74637;52.170;21.034;2024-01-30T05:52:38;33.00;22.00;13.00
84428;PMS7003;74637;52.170;21.034;2024-01-30T05:55:04;20.00;20.00;11.00
84428;PMS7003;74637;52.170;21.034;2024-01-30T05:57:31;18.50;12.50;8.00
84428;PMS7003;74637;52.170;21.034;2024-01-30T05:59:58;24.00;18.00;12.00
84428;PMS7003;74637;52.170;21.034;2024-01-30T06:02:24;17.50;16.50;9.00
84428;PMS7003;74637;52.170;21.034;2024-01-30T06:04:51;20.50;19.50;13.00
84428;PMS7003;74637;52.170;21.034;2024-01-30T06:07:17;31.67;26.33;14.67
84428;PMS7003;74637;52.170;21.034;2024-01-30T06:09:44;27.00;17.00;11.00
84428;PMS7003;74637;52.170;21.034;2024-01-30T06:12:12;33.00;27.00;14.00
84428;PMS7003;74637;52.170;21.034;2024-01-30T06:14:39;21.50;18.25;11.75
84428;PMS7003;74637;52.170;21.034;2024-01-30T06:17:06;31.50;26.50;15.00
84428;PMS7003;74637;52.170;21.034;2024-01-30T06:19:33;33.50;20.00;13.00
84428;PMS7003;74637;52.170;21.034;2024-01-30T06:21:59;28.00;21.00;14.00
84428;PMS7003;74637;52.170;21.034;2024-01-30T06:24:26;40.00;27.50;17.00
84428;PMS7003;74637;52.170;21.034;2024-01-30T06:26:54;27.00;20.00;14.00
84428;PMS7003;74637;52.170;21.034;2024-01-30T06:29:20;35.33;26.67;17.33
84428;PMS7003;74637;52.170;21.034;2024-01-30T06:31:47;35.00;29.00;17.00
84428;PMS7003;74637;52.170;21.034;2024-01-30T06:34:13;38.00;25.00;14.67
84428;PMS7003;74637;52.170;21.034;2024-01-30T06:36:40;27.33;20.67;13.00
84428;PMS7003;74637;52.170;21.034;2024-01-30T06:39:07;33.00;20.00;13.00
84428;PMS7003;74637;52.170;21.034;2024-01-30T06:41:34;39.00;24.00;17.00
84428;PMS7003;74637;52.170;21.034;2024-01-30T06:44:03;32.50;23.00;14.50
84428;PMS7003;74637;52.170;21.034;2024-01-30T06:46:32;38.67;26.67;17.67
84428;PMS7003;74637;52.170;21.034;2024-01-30T06:48:59;33.50;23.50;14.00
84428;PMS7003;74637;52.170;21.034;2024-01-30T06:51:25;31.33;22.00;12.33
84428;PMS7003;74637;52.170;21.034;2024-01-30T06:53:52;33.00;24.00;14.00
84428;PMS7003;74637;52.170;21.034;2024-01-30T06:56:18;27.00;21.00;14.00
84428;PMS7003;74637;52.170;21.034;2024-01-30T06:58:49;24.50;23.00;14.00
84428;PMS7003;74637;52.170;21.034;2024-01-30T07:01:16;36.50;23.50;14.00
84428;PMS7003;74637;52.170;21.034;2024-01-30T07:03:43;34.00;27.00;13.00
84428;PMS7003;74637;52.170;21.034;2024-01-30T07:06:09;24.33;22.00;14.00
84428;PMS7003;74637;52.170;21.034;2024-01-30T07:08:37;31.50;22.50;12.00
84428;PMS7003;74637;52.170;21.034;2024-01-30T07:11:06;35.00;24.00;15.00
84428;PMS7003;74637;52.170;21.034;2024-01-30T07:13:34;31.33;22.00;12.00
84428;PMS7003;74637;52.170;21.034;2024-01-30T07:16:01;41.33;29.67;16.33
84428;PMS7003;74637;52.170;21.034;2024-01-30T07:18:27;28.67;22.33;14.33
84428;PMS7003;74637;52.170;21.034;2024-01-30T07:20:54;34.00;26.67;17.00
84428;PMS7003;74637;52.170;21.034;2024-01-30T07:23:20;29.00;25.00;12.50
84428;PMS7003;74637;52.170;21.034;2024-01-30T07:25:47;28.00;23.00;15.00
84428;PMS7003;74637;52.170;21.034;2024-01-30T07:28:16;29.00;24.00;17.00
84428;PMS7003;74637;52.170;21.034;2024-01-30T07:30:43;41.50;29.00;14.50
84428;PMS7003;74637;52.170;21.034;2024-01-30T07:33:09;19.00;15.00;12.00
84428;PMS7003;74637;52.170;21.034;2024-01-30T07:35:36;45.00;27.50;17.00
84428;PMS7003;74637;52.170;21.034;2024-01-30T07:38:03;27.50;24.00;14.00
84428;PMS7003;74637;52.170;21.034;2024-01-30T07:40:30;23.50;18.50;11.00
84428;PMS7003;74637;52.170;21.034;2024-01-30T07:42:56;30.75;20.00;10.75
84428;PMS7003;74637;52.170;21.034;2024-01-30T07:45:23;32.00;27.33;15.67
84428;PMS7003;74637;52.170;21.034;2024-01-30T07:47:51;39.00;29.00;19.00
84428;PMS7003;74637;52.170;21.034;2024-01-30T07:50:18;32.00;29.50;18.00
84428;PMS7003;74637;52.170;21.034;2024-01-30T07:52:45;45.00;24.00;17.00
84428;PMS7003;74637;52.170;21.034;2024-01-30T07:55:12;31.67;25.00;14.33
84428;PMS7003;74637;52.170;21.034;2024-01-30T07:57:39;30.00;24.00;14.00
84428;PMS7003;74637;52.170;21.034;2024-01-30T08:00:06;34.00;24.00;14.00
84428;PMS7003;74637;52.170;21.034;2024-01-30T08:02:33;40.00;27.00;18.00
84428;PMS7003;74637;52.170;21.034;2024-01-30T08:05:00;29.50;21.50;14.00
84428;PMS7003;74637;52.170;21.034;2024-01-30T08:07:26;38.00;27.00;18.00
84428;PMS7003;74637;52.170;21.034;2024-01-30T08:09:56;32.00;28.33;16.33
84428;PMS7003;74637;52.170;21.034;2024-01-30T08:12:22;32.00;29.00;15.33
84428;PMS7003;74637;52.170;21.034;2024-01-30T08:14:49;39.50;27.00;16.00
84428;PMS7003;74637;52.170;21.034;2024-01-30T08:17:15;34.67;26.67;15.33
84428;PMS7003;74637;52.170;21.034;2024-01-30T08:19:42;31.00;25.00;16.50
84428;PMS7003;74637;52.170;21.034;2024-01-30T08:22:08;36.33;26.00;15.00
84428;PMS7003;74637;52.170;21.034;2024-01-30T08:24:35;36.00;25.50;16.00
84428;PMS7003;74637;52.170;21.034;2024-01-30T08:27:01;46.00;26.00;15.00
84428;PMS7003;74637;52.170;21.034;2024-01-30T08:29:28;34.00;25.00;13.00
84428;PMS7003;74637;52.170;21.034;2024-01-30T08:31:55;30.00;21.50;13.00
84428;PMS7003;74637;52.170;21.034;2024-01-30T08:34:22;37.00;30.00;18.00
84428;PMS7003;74637;52.170;21.034;2024-01-30T08:36:49;34.00;24.00;13.00
84428;PMS7003;74637;52.170;21.034;2024-01-30T08:39:15;36.33;23.67;15.00
84428;PMS7003;74637;52.170;21.034;2024-01-30T08:41:42;35.00;28.00;17.00
84428;PMS7003;74637;52.170;21.034;2024-01-30T08:44:08;33.33;21.67;10.67
84428;PMS7003;74637;52.170;21.034;2024-01-30T08:46:37;37.00;31.00;18.00
84428;PMS7003;74637;52.170;21.034;2024-01-30T08:49:03;37.00;24.00;15.50
84428;PMS7003;74637;52.170;21.034;2024-01-30T08:51:31;32.50;24.25;15.50
84428;PMS7003;74637;52.170;21.034;2024-01-30T08:53:57;31.00;23.00;12.67
84428;PMS7003;74637;52.170;21.034;2024-01-30T08:56:24;28.50;23.50;13.00
84428;PMS7003;74637;52.170;21.034;2024-01-30T08:58:50;38.33;31.00;19.00
84428;PMS7003;74637;52.170;21.034;2024-01-30T09:01:17;32.50;25.00;14.50
84428;PMS7003;74637;52.170;21.034;2024-01-30T09:03:43;41.00;20.50;12.50
84428;PMS7003;74637;52.170;21.034;2024-01-30T09:06:12;27.00;23.75;13.75
84428;PMS7003;74637;52.170;21.034;2024-01-30T09:08:39;37.00;24.00;13.00
84428;PMS7003;74637;52.170;21.034;2024-01-30T09:11:09;26.00;21.00;13.00
84428;PMS7003;74637;52.170;21.034;2024-01-30T09:13:36;32.50;24.50;17.00
84428;PMS7003;74637;52.170;21.034;2024-01-30T09:16:04;31.00;22.50;13.00
84428;PMS7003;74637;52.170;21.034;2024-01-30T09:18:31;32.00;22.00;13.00
84428;PMS7003;74637;52.170;21.034;2024-01-30T09:23:27;25.50;21.50;16.50
84428;PMS7003;74637;52.170;21.034;2024-01-30T09:25:54;30.00;21.50;13.00
84428;PMS7003;74637;52.170;21.034;2024-01-30T09:28:21;28.00;19.00;12.00
84428;PMS7003;74637;52.170;21.034;2024-01-30T09:30:48;22.00;20.00;14.00
84428;PMS7003;74637;52.170;21.034;2024-01-30T09:33:15;24.00;18.50;13.00
84428;PMS7003;74637;52.170;21.034;2024-01-30T09:35:41;20.00;11.00;6.00
84428;PMS7003;74637;52.170;21.034;2024-01-30T09:38:08;27.00;19.00;11.00
84428;PMS7003;74637;52.170;21.034;2024-01-30T09:40:34;30.00;20.00;13.00
84428;PMS7003;74637;52.170;21.034;2024-01-30T09:43:01;27.00;20.00;13.00
84428;PMS7003;74637;52.170;21.034;2024-01-30T09:45:27;33.33;22.67;12.33
84428;PMS7003;74637;52.170;21.034;2024-01-30T09:47:54;25.33;22.00;16.00
84428;PMS7003;74637;52.170;21.034;2024-01-30T09:50:21;35.00;24.00;14.00
84428;PMS7003;74637;52.170;21.034;2024-01-30T09:52:47;27.50;21.00;11.00
84428;PMS7003;74637;52.170;21.034;2024-01-30T09:55:16;33.50;21.50;12.00
84428;PMS7003;74637;52.170;21.034;2024-01-30T09:57:43;27.00;20.33;12.67
84428;PMS7003;74637;52.170;21.034;2024-01-30T10:00:10;24.00;20.00;11.00
84428;PMS7003;74637;52.170;21.034;2024-01-30T10:02:38;17.50;17.50;10.00
84428;PMS7003;74637;52.170;21.034;2024-01-30T10:05:05;28.00;22.00;11.00
84428;PMS7003;74637;52.170;21.034;2024-01-30T10:07:32;20.00;15.00;12.00
84428;PMS7003;74637;52.170;21.034;2024-01-30T10:09:59;21.50;19.50;12.00
84428;PMS7003;74637;52.170;21.034;2024-01-30T10:12:26;34.75;23.00;12.75
84428;PMS7003;74637;52.170;21.034;2024-01-30T10:14:53;25.50;19.50;14.00
84428;PMS7003;74637;52.170;21.034;2024-01-30T10:17:24;22.50;17.50;12.50
84428;PMS7003;74637;52.170;21.034;2024-01-30T10:19:51;28.00;25.25;14.00
84428;PMS7003;74637;52.170;21.034;2024-01-30T10:22:18;25.00;22.00;14.00
84428;PMS7003;74637;52.170;21.034;2024-01-30T10:24:45;27.50;19.00;11.00
84428;PMS7003;74637;52.170;21.034;2024-01-30T10:27:12;38.00;27.00;14.00
84428;PMS7003;74637;52.170;21.034;2024-01-30T10:29:38;27.50;19.50;10.50
84428;PMS7003;74637;52.170;21.034;2024-01-30T10:32:05;33.50;21.00;13.00
84428;PMS7003;74637;52.170;21.034;2024-01-30T10:34:32;25.50;19.50;11.00
84428;PMS7003;74637;52.170;21.034;2024-01-30T10:37:05;28.00;22.50;14.00
84428;PMS7003;74637;52.170;21.034;2024-01-30T10:39:44;22.67;19.00;11.00
84428;PMS7003;74637;52.170;21.034;2024-01-30T10:42:12;20.00;15.50;10.50
84428;PMS7003;74637;52.170;21.034;2024-01-30T10:47:21;24.50;19.50;10.50
84428;PMS7003;74637;52.170;21.034;2024-01-30T10:49:52;19.50;18.00;11.00
84428;PMS7003;74637;52.170;21.034;2024-01-30T10:52:21;26.00;21.00;12.00
84428;PMS7003;74637;52.170;21.034;2024-01-30T10:54:52;27.33;20.00;11.33
84428;PMS7003;74637;52.170;21.034;2024-01-30T10:57:20;32.33;25.00;15.00
84428;PMS7003;74637;52.170;21.034;2024-01-30T10:59:56;37.00;27.50;18.00
84428;PMS7003;74637;52.170;21.034;2024-01-30T11:02:24;28.00;18.00;9.00
84428;PMS7003;74637;52.170;21.034;2024-01-30T11:04:56;22.00;17.00;11.00
84428;PMS7003;74637;52.170;21.034;2024-01-30T11:07:25;26.00;21.00;11.00
84428;PMS7003;74637;52.170;21.034;2024-01-30T11:09:54;21.00;15.50;10.50
84428;PMS7003;74637;52.170;21.034;2024-01-30T11:12:30;29.00;21.00;12.00
84428;PMS7003;74637;52.170;21.034;2024-01-30T11:20:16;25.00;19.00;13.00
84428;PMS7003;74637;52.170;21.034;2024-01-30T11:22:46;25.50;20.50;13.00
84428;PMS7003;74637;52.170;21.034;2024-01-30T11:25:14;21.67;18.33;13.00
84428;PMS7003;74637;52.170;21.034;2024-01-30T11:27:43;22.00;16.00;10.50
84428;PMS7003;74637;52.170;21.034;2024-01-30T11:30:10;21.33;20.33;12.67
84428;PMS7003;74637;52.170;21.034;2024-01-30T11:32:57;25.50;16.50;11.50
84428;PMS7003;74637;52.170;21.034;2024-01-30T11:35:27;27.00;20.00;12.50
84428;PMS7003;74637;52.170;21.034;2024-01-30T11:37:57;20.00;16.50;10.00
84428;PMS7003;74637;52.170;21.034;2024-01-30T11:40:26;16.50;13.00;9.00
84428;PMS7003;74637;52.170;21.034;2024-01-30T11:42:58;23.75;18.25;13.25
84428;PMS7003;74637;52.170;21.034;2024-01-30T11:45:26;27.00;20.00;13.00
84428;PMS7003;74637;52.170;21.034;2024-01-30T11:47:54;16.50;14.50;9.50
84428;PMS7003;74637;52.170;21.034;2024-01-30T11:50:21;22.00;15.00;10.00
84428;PMS7003;74637;52.170;21.034;2024-01-30T11:52:48;23.00;22.00;14.00
84428;PMS7003;74637;52.170;21.034;2024-01-30T11:55:14;26.33;17.67;11.00
84428;PMS7003;74637;52.170;21.034;2024-01-30T11:57:41;27.00;18.00;10.00
84428;PMS7003;74637;52.170;21.034;2024-01-30T12:00:19;17.33;15.33;11.00
84428;PMS7003;74637;52.170;21.034;2024-01-30T12:02:51;26.00;24.00;11.00
84428;PMS7003;74637;52.170;21.034;2024-01-30T12:05:22;26.00;15.67;10.33
84428;PMS7003;74637;52.170;21.034;2024-01-30T12:07:49;29.00;20.33;14.00
84428;PMS7003;74637;52.170;21.034;2024-01-30T12:10:16;28.00;19.00;12.00
84428;PMS7003;74637;52.170;21.034;2024-01-30T12:12:47;21.33;19.00;11.33
84428;PMS7003;74637;52.170;21.034;2024-01-30T12:15:16;20.00;16.00;11.50
84428;PMS7003;74637;52.170;21.034;2024-01-30T12:17:44;18.00;13.00;8.00
84428;PMS7003;74637;52.170;21.034;2024-01-30T12:20:15;14.00;12.50;8.50
84428;PMS7003;74637;52.170;21.034;2024-01-30T12:22:45;18.00;15.00;8.00
84428;PMS7003;74637;52.170;21.034;2024-01-30T12:25:14;16.00;13.00;9.00
84428;PMS7003;74637;52.170;21.034;2024-01-30T12:27:43;15.50;14.00;10.00
84428;PMS7003;74637;52.170;21.034;2024-01-30T12:30:14;14.75;11.75;9.00
84428;PMS7003;74637;52.170;21.034;2024-01-30T12:32:41;17.00;16.00;10.00
84428;PMS7003;74637;52.170;21.034;2024-01-30T12:35:12;14.00;13.00;9.50
84428;PMS7003;74637;52.170;21.034;2024-01-30T12:37:40;16.00;14.00;9.00
84428;PMS7003;74637;52.170;21.034;2024-01-30T12:40:10;17.00;15.33;9.67
84428;PMS7003;74637;52.170;21.034;2024-01-30T12:42:41;17.00;13.50;9.50
84428;PMS7003;74637;52.170;21.034;2024-01-30T12:45:17;15.00;11.00;9.00
84428;PMS7003;74637;52.170;21.034;2024-01-30T12:47:48;19.00;16.50;10.00
84428;PMS7003;74637;52.170;21.034;2024-01-30T12:50:14;20.00;17.00;12.50
84428;PMS7003;74637;52.170;21.034;2024-01-30T12:52:43;17.00;14.00;9.00
84428;PMS7003;74637;52.170;21.034;2024-01-30T12:55:10;16.00;14.00;8.00
84428;PMS7003;74637;52.170;21.034;2024-01-30T12:57:36;10.00;9.67;6.67
84428;PMS7003;74637;52.170;21.034;2024-01-30T13:00:05;21.67;16.67;10.00
84428;PMS7003;74637;52.170;21.034;2024-01-30T13:02:34;16.00;15.00;9.00
84428;PMS7003;74637;52.170;21.034;2024-01-30T13:05:03;16.33;12.33;8.00
84428;PMS7003;74637;52.170;21.034;2024-01-30T13:07:30;19.67;15.00;10.00
84428;PMS7003;74637;52.170;21.034;2024-01-30T13:09:57;22.50;18.00;11.00
84428;PMS7003;74637;52.170;21.034;2024-01-30T13:12:30;20.50;15.00;10.00
84428;PMS7003;74637;52.170;21.034;2024-01-30T13:14:59;15.00;12.00;9.00
84428;PMS7003;74637;52.170;21.034;2024-01-30T13:17:27;13.00;12.00;7.33
84428;PMS7003;74637;52.170;21.034;2024-01-30T13:19:54;11.00;10.00;7.00
84428;PMS7003;74637;52.170;21.034;2024-01-30T13:22:21;11.00;10.00;8.00
84428;PMS7003;74637;52.170;21.034;2024-01-30T13:24:48;11.50;9.00;7.00
84428;PMS7003;74637;52.170;21.034;2024-01-30T13:27:14;15.00;14.00;10.00
84428;PMS7003;74637;52.170;21.034;2024-01-30T13:29:41;14.00;12.00;8.00
84428;PMS7003;74637;52.170;21.034;2024-01-30T13:32:07;18.75;15.50;9.00
84428;PMS7003;74637;52.170;21.034;2024-01-30T13:34:34;23.25;20.00;13.00
84428;PMS7003;74637;52.170;21.034;2024-01-30T13:37:01;17.00;12.67;8.33
84428;PMS7003;74637;52.170;21.034;2024-01-30T13:39:27;13.67;10.67;7.67
84428;PMS7003;74637;52.170;21.034;2024-01-30T13:41:55;11.00;10.00;5.00
84428;PMS7003;74637;52.170;21.034;2024-01-30T13:44:22;12.00;10.00;7.00
84428;PMS7003;74637;52.170;21.034;2024-01-30T13:46:48;10.00;10.00;8.00
84428;PMS7003;74637;52.170;21.034;2024-01-30T13:49:15;12.00;10.00;7.00
84428;PMS7003;74637;52.170;21.034;2024-01-30T13:51:42;10.50;8.50;6.50
84428;PMS7003;74637;52.170;21.034;2024-01-30T13:54:08;15.50;14.00;9.50